createdAt,value
2019-02-06T00:00:57.670Z,53.33
2019-02-06T00:03:29.109Z,49.67
2019-02-06T00:05:59.708Z,50.50
2019-02-06T00:08:30.059Z,56.20
2019-02-06T00:11:00.484Z,53.73
2019-02-06T00:13:31.530Z,49.00
2019-02-06T00:16:02.154Z,55.13
2019-02-06T00:18:32.524Z,52.00
2019-02-06T00:21:03.087Z,47.10
2019-02-06T00:23:33.495Z,55.67
2019-02-06T00:26:04.698Z,55.27
2019-02-06T00:28:37.298Z,51.37
2019-02-06T00:31:07.679Z,52.23
2019-02-06T00:33:38.078Z,52.37
2019-02-06T00:36:08.658Z,53.13
2019-02-06T00:38:39.048Z,42.70
2019-02-06T00:41:10.068Z,53.20
2019-02-06T00:43:40.434Z,51.70
2019-02-06T00:46:10.850Z,52.57
2019-02-06T00:48:42.813Z,51.43
2019-02-06T00:51:13.642Z,51.63
2019-02-06T00:53:44.363Z,41.20
2019-02-06T00:56:14.813Z,51.10
2019-02-06T00:58:45.324Z,55.57
2019-02-06T01:01:15.964Z,54.03
2019-02-06T01:03:46.301Z,47.20
2019-02-06T01:06:16.738Z,53.23
2019-02-06T01:08:47.329Z,47.67
2019-02-06T01:11:17.697Z,50.40
2019-02-06T01:13:48.103Z,50.03
2019-02-06T01:16:18.524Z,51.47
2019-02-06T01:18:48.835Z,46.93
2019-02-06T01:21:19.266Z,52.50
2019-02-06T01:23:49.692Z,54.20
2019-02-06T01:26:20.090Z,49.50
2019-02-06T01:28:50.756Z,49.87
2019-02-06T01:31:24.968Z,50.43
2019-02-06T01:33:55.262Z,49.47
2019-02-06T01:36:26.626Z,50.67
2019-02-06T01:38:57.158Z,49.77
2019-02-06T01:41:27.904Z,47.63
2019-02-06T01:43:58.220Z,53.97
2019-02-06T01:46:28.634Z,49.63
2019-02-06T01:48:59.092Z,50.53
2019-02-06T01:51:29.729Z,52.13
2019-02-06T01:54:00.128Z,49.57
2019-02-06T01:56:30.902Z,49.17
2019-02-06T01:59:01.765Z,50.57
2019-02-06T02:01:32.124Z,49.80
2019-02-06T02:04:03.002Z,52.57
2019-02-06T02:06:33.426Z,48.80
2019-02-06T02:09:07.314Z,53.70
2019-02-06T02:11:37.914Z,51.53
2019-02-06T02:14:08.474Z,53.40
2019-02-06T02:16:39.105Z,43.70
2019-02-06T02:19:09.524Z,49.43
2019-02-06T02:21:39.948Z,46.27
2019-02-06T02:24:10.672Z,50.07
2019-02-06T02:26:41.028Z,49.07
2019-02-06T02:29:11.484Z,47.60
2019-02-06T02:31:42.448Z,48.10
2019-02-06T02:34:14.260Z,48.63
2019-02-06T02:36:44.839Z,46.70
2019-02-06T02:39:16.330Z,51.17
2019-02-06T02:41:46.799Z,48.50
2019-02-06T02:44:17.235Z,46.03
2019-02-06T02:46:47.806Z,49.10
2019-02-06T02:49:18.219Z,47.33
2019-02-06T02:51:48.596Z,48.17
2019-02-06T02:54:19.687Z,47.87
2019-02-06T02:56:50.079Z,49.77
2019-02-06T02:59:20.834Z,47.73
2019-02-06T03:02:05.171Z,47.90
2019-02-06T03:04:39.706Z,47.97
2019-02-06T03:07:10.156Z,45.43
2019-02-06T03:09:40.960Z,48.40
2019-02-06T03:12:11.352Z,48.13
2019-02-06T03:14:42.202Z,45.63
2019-02-06T03:17:12.653Z,46.13
2019-02-06T03:19:42.998Z,48.40
2019-02-06T03:22:13.523Z,45.03
2019-02-06T03:24:43.998Z,45.67
2019-02-06T03:27:14.356Z,45.17
2019-02-06T03:29:44.760Z,44.43
2019-02-06T03:32:15.131Z,47.43
2019-02-06T03:34:45.528Z,44.63
2019-02-06T03:37:16.442Z,45.23
2019-02-06T03:39:46.801Z,43.03
2019-02-06T03:42:17.124Z,45.30
2019-02-06T03:44:47.504Z,45.07
2019-02-06T03:47:17.897Z,41.77
2019-02-06T03:49:49.290Z,44.87
2019-02-06T03:52:19.696Z,41.90
2019-02-06T03:54:50.133Z,42.60
2019-02-06T03:57:20.556Z,44.77
2019-02-06T03:59:50.947Z,44.90
2019-02-06T04:02:21.364Z,43.40
2019-02-06T04:04:52.262Z,43.03
2019-02-06T04:07:22.700Z,42.97
2019-02-06T04:09:53.154Z,41.67
2019-02-06T04:12:23.498Z,41.20
2019-02-06T04:14:53.941Z,39.53
2019-02-06T04:17:24.469Z,44.93
2019-02-06T04:19:55.173Z,41.13
2019-02-06T04:22:25.454Z,39.50
2019-02-06T04:24:55.818Z,38.87
2019-02-06T04:27:26.124Z,41.67
2019-02-06T04:29:56.498Z,40.50
2019-02-06T04:32:28.370Z,42.63
2019-02-06T04:34:58.745Z,40.97
2019-02-06T04:37:29.105Z,43.00
2019-02-06T04:39:59.456Z,38.13
2019-02-06T04:42:29.779Z,40.17
2019-02-06T04:45:00.337Z,39.67
2019-02-06T04:47:31.029Z,40.97
2019-02-06T04:50:01.416Z,41.47
2019-02-06T04:52:31.876Z,42.10
2019-02-06T04:55:02.372Z,38.83
2019-02-06T04:57:32.825Z,38.00
2019-02-06T05:00:03.250Z,41.20
2019-02-06T05:02:33.645Z,38.30
2019-02-06T05:05:04.968Z,37.27
2019-02-06T05:07:37.417Z,37.50
2019-02-06T05:10:09.855Z,40.10
2019-02-06T05:12:40.282Z,40.13
2019-02-06T05:15:11.577Z,37.23
2019-02-06T05:17:41.959Z,38.70
2019-02-06T05:20:30.168Z,36.97
2019-02-06T05:23:00.593Z,35.63
2019-02-06T05:25:31.326Z,36.93
2019-02-06T05:28:01.740Z,37.93
2019-02-06T05:30:32.155Z,37.53
2019-02-06T05:33:02.642Z,36.97
2019-02-06T05:35:33.015Z,37.87
2019-02-06T05:38:03.427Z,37.33
2019-02-06T05:40:33.760Z,37.00
2019-02-06T05:43:05.761Z,35.97
2019-02-06T05:45:36.184Z,37.20
2019-02-06T05:48:06.577Z,38.53
2019-02-06T05:50:37.179Z,35.60
2019-02-06T05:53:08.073Z,38.33
2019-02-06T05:55:38.464Z,37.07
2019-02-06T05:58:08.929Z,36.53
2019-02-06T06:00:50.159Z,36.20
2019-02-06T06:03:20.534Z,34.50
2019-02-06T06:05:51.404Z,36.47
2019-02-06T06:08:22.133Z,36.97
2019-02-06T06:10:52.686Z,35.97
2019-02-06T06:13:23.476Z,36.30
2019-02-06T06:15:53.954Z,36.73
2019-02-06T06:18:24.847Z,35.73
2019-02-06T06:20:55.537Z,38.43
2019-02-06T06:23:25.980Z,36.80
2019-02-06T06:25:56.310Z,36.83
2019-02-06T06:28:26.662Z,34.60
2019-02-06T06:30:57.072Z,34.20
2019-02-06T06:33:28.911Z,35.67
2019-02-06T06:35:59.234Z,35.60
2019-02-06T06:38:30.040Z,38.40
2019-02-06T06:41:00.422Z,33.03
2019-02-06T06:43:30.809Z,36.63
2019-02-06T06:46:01.117Z,36.00
2019-02-06T06:48:31.882Z,37.40
2019-02-06T06:51:02.285Z,36.20
2019-02-06T06:53:35.858Z,37.53
2019-02-06T06:56:06.348Z,33.33
2019-02-06T06:58:37.922Z,35.07
2019-02-06T07:01:10.755Z,35.07
2019-02-06T07:03:40.792Z,35.07
2019-02-06T07:06:11.144Z,35.93
2019-02-06T07:08:42.218Z,38.23
2019-02-06T07:11:14.291Z,38.43
2019-02-06T07:13:44.744Z,37.67
2019-02-06T07:16:15.194Z,37.20
2019-02-06T07:18:45.593Z,34.60
2019-02-06T07:21:16.387Z,34.83
2019-02-06T07:23:46.811Z,34.70
2019-02-06T07:26:17.186Z,33.53
2019-02-06T07:28:48.000Z,35.07
2019-02-06T07:31:18.379Z,35.20
2019-02-06T07:33:49.477Z,35.57
2019-02-06T07:36:19.801Z,33.03
2019-02-06T07:38:50.192Z,34.30
2019-02-06T07:41:20.511Z,37.63
2019-02-06T07:43:50.916Z,33.20
2019-02-06T07:46:21.310Z,37.07
2019-02-06T07:48:51.941Z,35.77
2019-02-06T07:51:22.239Z,34.57
2019-02-06T07:53:52.677Z,33.87
2019-02-06T07:56:23.817Z,30.97
2019-02-06T07:58:54.327Z,35.47
2019-02-06T08:01:24.636Z,45.97
2019-02-06T08:03:55.037Z,31.27
2019-02-06T08:06:25.913Z,33.37
2019-02-06T08:08:57.315Z,35.33
2019-02-06T08:11:27.990Z,34.53
2019-02-06T08:13:58.343Z,33.40
2019-02-06T08:16:28.869Z,33.37
2019-02-06T08:18:59.223Z,34.43
2019-02-06T08:21:29.648Z,32.20
2019-02-06T08:24:00.439Z,34.70
2019-02-06T08:26:30.857Z,31.17
2019-02-06T08:29:01.579Z,33.77
2019-02-06T08:31:32.263Z,32.30
2019-02-06T08:34:02.733Z,33.33
2019-02-06T08:36:36.575Z,31.77
2019-02-06T08:39:09.819Z,32.20
2019-02-06T08:41:40.697Z,31.87
2019-02-06T08:44:11.077Z,31.17
2019-02-06T08:46:41.518Z,29.73
2019-02-06T08:49:12.287Z,29.40
2019-02-06T08:51:42.771Z,30.27
2019-02-06T08:54:13.143Z,29.93
2019-02-06T08:56:44.039Z,29.23
2019-02-06T08:59:14.355Z,29.27
2019-02-06T09:01:45.135Z,32.27
2019-02-06T09:04:15.577Z,29.20
2019-02-06T09:06:46.052Z,31.67
2019-02-06T09:09:16.427Z,31.30
2019-02-06T09:11:46.845Z,28.50
2019-02-06T09:14:17.285Z,29.63
2019-02-06T09:16:48.048Z,29.97
2019-02-06T09:19:19.092Z,30.73
2019-02-06T09:21:49.589Z,30.77
2019-02-06T09:24:19.955Z,28.47
2019-02-06T09:26:50.440Z,29.00
2019-02-06T09:29:21.019Z,28.63
2019-02-06T09:31:51.682Z,28.57
2019-02-06T09:34:22.221Z,27.37
2019-02-06T09:36:53.031Z,26.67
2019-02-06T09:39:23.409Z,27.77
2019-02-06T09:41:54.068Z,28.13
2019-02-06T09:44:24.539Z,29.37
2019-02-06T09:46:55.363Z,28.60
2019-02-06T09:49:25.757Z,29.10
2019-02-06T09:51:56.205Z,30.90
2019-02-06T09:54:26.579Z,27.77
2019-02-06T09:56:57.089Z,32.43
2019-02-06T09:59:27.425Z,27.90
2019-02-06T10:01:58.560Z,27.67
2019-02-06T10:04:28.983Z,30.50
2019-02-06T10:06:59.617Z,30.07
2019-02-06T10:09:30.441Z,31.37
2019-02-06T10:12:00.855Z,27.67
2019-02-06T10:14:31.296Z,29.77
2019-02-06T10:17:01.805Z,27.80
2019-02-06T10:19:32.261Z,27.53
2019-02-06T10:22:03.177Z,29.33
2019-02-06T10:24:34.154Z,30.50
2019-02-06T10:27:04.636Z,26.80
2019-02-06T10:29:35.893Z,28.50
2019-02-06T10:32:06.263Z,29.70
2019-02-06T10:34:36.884Z,30.47
2019-02-06T10:37:07.261Z,28.10
2019-02-06T10:39:37.667Z,27.50
2019-02-06T10:42:08.241Z,28.87
2019-02-06T10:44:38.655Z,28.67
2019-02-06T10:47:09.187Z,30.27
2019-02-06T10:49:40.773Z,27.30
2019-02-06T10:52:11.134Z,25.00
2019-02-06T10:54:41.773Z,28.97
2019-02-06T10:57:12.819Z,28.67
2019-02-06T10:59:43.247Z,28.13
2019-02-06T11:02:14.247Z,32.67
2019-02-06T11:04:44.666Z,26.50
2019-02-06T11:07:15.056Z,28.47
2019-02-06T11:09:46.625Z,28.03
2019-02-06T11:12:17.079Z,27.13
2019-02-06T11:14:47.522Z,27.40
2019-02-06T11:17:18.161Z,27.17
2019-02-06T11:19:49.081Z,27.30
2019-02-06T11:22:19.569Z,27.73
2019-02-06T11:24:50.463Z,28.40
2019-02-06T11:27:21.033Z,27.27
2019-02-06T11:29:51.630Z,30.13
2019-02-06T11:32:22.123Z,26.23
2019-02-06T11:34:52.873Z,27.30
2019-02-06T11:37:23.279Z,27.17
2019-02-06T11:39:57.998Z,26.27
2019-02-06T11:42:26.011Z,27.30
2019-02-06T11:44:56.440Z,23.90
2019-02-06T11:47:26.787Z,25.57
2019-02-06T11:49:59.113Z,26.50
2019-02-06T11:52:29.533Z,23.80
2019-02-06T11:55:00.342Z,25.60
2019-02-06T11:57:31.005Z,26.20
2019-02-06T12:00:01.775Z,23.17
2019-02-06T12:02:37.490Z,23.70
2019-02-06T12:05:05.789Z,23.93
2019-02-06T12:07:36.179Z,22.33
2019-02-06T12:10:10.281Z,23.50
2019-02-06T12:12:41.800Z,23.47
2019-02-06T12:15:15.588Z,25.13
2019-02-06T12:17:46.339Z,24.27
2019-02-06T12:20:19.022Z,23.37
2019-02-06T12:22:51.620Z,24.87
2019-02-06T12:25:21.997Z,22.60
2019-02-06T12:27:52.726Z,22.70
2019-02-06T12:30:29.678Z,23.40
2019-02-06T12:33:00.132Z,23.67
2019-02-06T12:35:30.824Z,23.13
2019-02-06T12:38:01.578Z,22.37
2019-02-06T12:40:32.111Z,22.13
2019-02-06T12:43:02.432Z,22.20
2019-02-06T12:45:33.340Z,23.90
2019-02-06T12:48:06.813Z,24.53
2019-02-06T12:50:37.207Z,24.10
2019-02-06T12:53:07.866Z,22.30
2019-02-06T12:55:39.667Z,24.00
2019-02-06T12:58:10.590Z,24.53
2019-02-06T13:00:42.135Z,27.97
2019-02-06T13:03:12.614Z,25.23
2019-02-06T13:05:43.275Z,23.37
2019-02-06T13:08:13.697Z,23.47
2019-02-06T13:10:44.087Z,28.30
2019-02-06T13:13:14.727Z,26.57
2019-02-06T13:15:47.358Z,25.73
2019-02-06T13:18:17.995Z,25.33
2019-02-06T13:20:51.197Z,23.83
2019-02-06T13:23:21.510Z,24.67
2019-02-06T13:25:51.945Z,23.77
2019-02-06T13:28:22.307Z,22.07
2019-02-06T13:30:52.870Z,24.00
2019-02-06T13:33:23.569Z,20.93
2019-02-06T13:35:54.025Z,25.03
2019-02-06T13:38:24.856Z,21.60
2019-02-06T13:40:55.585Z,25.83
2019-02-06T13:43:27.416Z,22.00
2019-02-06T13:45:57.759Z,24.37
2019-02-06T13:48:28.181Z,22.47
2019-02-06T13:50:59.031Z,24.17
2019-02-06T13:53:29.447Z,24.87
2019-02-06T13:55:59.799Z,23.53
2019-02-06T13:58:30.283Z,24.30
2019-02-06T14:01:00.919Z,23.93
2019-02-06T14:03:31.258Z,23.97
2019-02-06T14:06:01.898Z,25.07
2019-02-06T14:08:32.743Z,22.43
2019-02-06T14:11:03.302Z,25.77
2019-02-06T14:13:33.676Z,22.80
2019-02-06T14:16:05.672Z,24.57
2019-02-06T14:18:36.006Z,25.33
2019-02-06T14:21:06.975Z,22.90
2019-02-06T14:24:02.857Z,25.83
2019-02-06T14:26:41.114Z,23.87
2019-02-06T14:29:57.100Z,23.53
2019-02-06T14:33:17.708Z,25.03
2019-02-06T14:36:19.736Z,26.00
2019-02-06T14:39:10.883Z,24.03
2019-02-06T14:42:26.265Z,24.60
2019-02-06T14:45:23.759Z,23.17
2019-02-06T14:48:30.195Z,22.37
2019-02-06T14:51:46.205Z,25.67
2019-02-06T14:54:41.830Z,21.83
2019-02-06T14:57:53.665Z,21.80
2019-02-06T15:01:00.486Z,22.37
2019-02-06T15:04:19.281Z,24.63
2019-02-06T15:07:32.704Z,21.57
2019-02-06T15:10:33.817Z,26.07
2019-02-06T15:13:39.179Z,22.10
2019-02-06T15:16:47.915Z,25.57
2019-02-06T15:19:40.228Z,25.03
2019-02-06T15:22:42.251Z,25.03
2019-02-06T15:25:49.401Z,27.27
2019-02-06T15:28:48.639Z,25.10
2019-02-06T15:31:57.001Z,25.13
2019-02-06T15:35:00.354Z,25.87
2019-02-06T15:37:57.987Z,26.13
2019-02-06T15:41:09.414Z,24.83
2019-02-06T15:44:01.824Z,26.97
2019-02-06T15:47:26.029Z,25.90
2019-02-06T15:50:40.912Z,27.70
2019-02-06T15:53:51.162Z,27.73
2019-02-06T15:56:53.114Z,28.80
2019-02-06T16:00:06.567Z,28.30
2019-02-06T16:03:13.210Z,27.07
2019-02-06T16:06:10.268Z,27.20
2019-02-06T16:09:24.599Z,27.23
2019-02-06T16:12:30.213Z,28.70
2019-02-06T16:15:16.375Z,29.47
2019-02-06T16:18:27.884Z,31.03
2019-02-06T16:21:52.687Z,31.77
2019-02-06T16:24:57.185Z,30.73
2019-02-06T16:27:50.767Z,30.93
2019-02-06T16:31:09.818Z,32.17
2019-02-06T16:34:08.944Z,32.13
2019-02-06T16:37:19.643Z,32.47
2019-02-06T16:40:30.237Z,38.90
2019-02-06T16:43:41.462Z,35.83
2019-02-06T16:46:49.636Z,43.53
2019-02-06T16:49:38.361Z,33.87
2019-02-06T16:52:18.960Z,34.97
2019-02-06T16:55:41.553Z,41.47
2019-02-06T16:58:48.192Z,36.07
2019-02-06T17:02:02.360Z,33.73
2019-02-06T17:05:00.787Z,40.77
2019-02-06T17:07:49.972Z,44.60
2019-02-06T17:11:16.490Z,33.10
2019-02-06T17:14:26.030Z,33.50
2019-02-06T17:17:04.492Z,35.87
2019-02-06T17:20:01.975Z,35.07
2019-02-06T17:23:13.465Z,35.30
2019-02-06T17:26:11.540Z,33.60
2019-02-06T17:29:18.794Z,38.63
2019-02-06T17:32:36.204Z,36.03
2019-02-06T17:35:43.164Z,35.47
2019-02-06T17:38:36.053Z,39.27
2019-02-06T17:41:52.016Z,35.47
2019-02-06T17:45:03.799Z,36.13
2019-02-06T17:48:03.544Z,36.07
2019-02-06T17:50:57.843Z,39.40
2019-02-06T17:53:46.478Z,31.07
2019-02-06T17:56:18.596Z,32.80
2019-02-06T17:58:49.358Z,31.17
2019-02-06T18:01:59.964Z,31.97
2019-02-06T18:04:37.015Z,30.60
2019-02-06T18:07:07.896Z,28.80
2019-02-06T18:09:38.299Z,27.43
2019-02-06T18:12:08.822Z,30.60
2019-02-06T18:14:39.382Z,27.07
2019-02-06T18:17:10.371Z,27.70
2019-02-06T18:19:41.654Z,25.70
2019-02-06T18:22:12.074Z,47.10
2019-02-06T18:24:43.045Z,34.97
2019-02-06T18:27:14.325Z,28.77
2019-02-06T18:29:45.147Z,27.83
2019-02-06T18:32:15.874Z,29.37
2019-02-06T18:34:46.723Z,30.60
2019-02-06T18:37:17.404Z,34.03
2019-02-06T18:39:48.248Z,30.73
2019-02-06T18:42:18.739Z,30.20
2019-02-06T18:44:49.209Z,33.07
2019-02-06T18:47:21.099Z,29.50
2019-02-06T18:49:52.237Z,32.73
2019-02-06T18:52:22.728Z,49.53
2019-02-06T18:54:57.292Z,34.40
2019-02-06T18:57:26.382Z,37.43
2019-02-06T18:59:57.224Z,36.20
2019-02-06T19:02:27.602Z,39.57
2019-02-06T19:04:59.089Z,36.37
2019-02-06T19:07:29.888Z,37.40
2019-02-06T19:10:03.336Z,38.50
2019-02-06T19:12:34.115Z,39.00
2019-02-06T19:15:06.443Z,39.97
2019-02-06T19:17:38.164Z,43.13
2019-02-06T19:20:12.586Z,35.37
2019-02-06T19:22:43.280Z,42.60
2019-02-06T19:25:14.196Z,35.47
2019-02-06T19:27:44.929Z,36.27
2019-02-06T19:30:27.699Z,36.57
2019-02-06T19:32:58.652Z,35.60
2019-02-06T19:35:29.239Z,36.80
2019-02-06T19:37:59.748Z,36.13
2019-02-06T19:40:30.162Z,32.33
2019-02-06T19:43:02.704Z,34.40
2019-02-06T19:45:33.064Z,35.27
2019-02-06T19:48:15.073Z,34.67
2019-02-06T19:50:38.190Z,34.60
2019-02-06T19:53:09.216Z,34.57
2019-02-06T19:55:40.801Z,35.43
2019-02-06T19:58:11.540Z,37.80
2019-02-06T20:00:43.031Z,35.53
2019-02-06T20:03:13.537Z,38.47
2019-02-06T20:05:44.119Z,38.63
2019-02-06T20:08:15.257Z,38.60
2019-02-06T20:10:47.506Z,44.20
2019-02-06T20:13:18.079Z,44.43
2019-02-06T20:15:48.683Z,42.53
2019-02-06T20:18:19.094Z,51.30
2019-02-06T20:20:49.432Z,41.83
2019-02-06T20:23:19.926Z,42.10
2019-02-06T20:25:50.344Z,35.10
2019-02-06T20:28:20.780Z,40.77
2019-02-06T20:30:51.260Z,43.70
2019-02-06T20:33:22.310Z,43.97
2019-02-06T20:35:53.226Z,43.73
2019-02-06T20:38:23.724Z,43.67
2019-02-06T20:40:54.091Z,41.50
2019-02-06T20:43:24.696Z,42.60
2019-02-06T20:45:55.170Z,38.53
2019-02-06T20:48:26.132Z,40.57
2019-02-06T20:50:57.002Z,38.57
2019-02-06T20:53:27.912Z,40.93
2019-02-06T20:55:58.381Z,39.53
2019-02-06T20:58:29.053Z,40.90
2019-02-06T21:00:59.512Z,39.47
2019-02-06T21:03:29.949Z,36.17
2019-02-06T21:06:00.414Z,39.00
2019-02-06T21:08:30.914Z,39.07
2019-02-06T21:11:01.388Z,40.00
2019-02-06T21:13:33.926Z,43.07
2019-02-06T21:16:05.273Z,39.03
2019-02-06T21:18:35.885Z,37.70
2019-02-06T21:21:06.278Z,35.27
2019-02-06T21:23:36.704Z,39.53
2019-02-06T21:26:07.064Z,42.37
2019-02-06T21:28:37.495Z,41.30
2019-02-06T21:31:08.413Z,36.63
2019-02-06T21:33:38.870Z,42.00
2019-02-06T21:36:09.232Z,42.07
2019-02-06T21:38:39.932Z,38.30
2019-02-06T21:41:13.471Z,41.13
2019-02-06T21:43:44.509Z,39.63
2019-02-06T21:46:15.276Z,41.70
2019-02-06T21:48:45.681Z,42.90
2019-02-06T21:51:16.701Z,42.57
2019-02-06T21:53:47.076Z,42.30
2019-02-06T21:56:17.460Z,47.13
2019-02-06T21:58:48.328Z,47.67
2019-02-06T22:01:18.909Z,47.00
2019-02-06T22:03:49.445Z,45.87
2019-02-06T22:06:19.870Z,47.87
2019-02-06T22:08:50.776Z,43.90
2019-02-06T22:11:21.408Z,49.40
2019-02-06T22:13:55.269Z,48.53
2019-02-06T22:16:24.248Z,51.53
2019-02-06T22:18:54.947Z,49.50
2019-02-06T22:21:25.401Z,55.60
2019-02-06T22:23:56.237Z,52.83
2019-02-06T22:26:26.627Z,54.27
2019-02-06T22:28:57.088Z,56.70
2019-02-06T22:31:27.917Z,55.37
2019-02-06T22:33:58.235Z,53.73
2019-02-06T22:36:29.188Z,46.07
2019-02-06T22:39:00.181Z,55.13
2019-02-06T22:41:30.617Z,38.33
2019-02-06T22:44:06.537Z,53.53
2019-02-06T22:46:33.135Z,56.27
2019-02-06T22:49:05.234Z,55.43
2019-02-06T22:51:35.647Z,48.03
2019-02-06T22:54:06.388Z,56.63
2019-02-06T22:56:36.951Z,55.50
2019-02-06T22:59:07.392Z,39.67
2019-02-06T23:01:47.915Z,53.97
2019-02-06T23:04:18.471Z,58.60
2019-02-06T23:06:49.047Z,54.57
2019-02-06T23:09:19.898Z,43.23
2019-02-06T23:11:50.442Z,53.40
2019-02-06T23:14:21.136Z,49.53
2019-02-06T23:16:51.505Z,46.70
2019-02-06T23:19:21.921Z,43.13
2019-02-06T23:21:52.613Z,52.37
2019-02-06T23:24:23.100Z,52.73
2019-02-06T23:26:53.630Z,48.13
2019-02-06T23:29:24.345Z,42.83
2019-02-06T23:31:55.384Z,39.37
2019-02-06T23:34:25.771Z,53.30
2019-02-06T23:36:56.255Z,46.17
2019-02-06T23:39:26.655Z,51.50
2019-02-06T23:41:57.696Z,44.60
2019-02-06T23:44:29.218Z,41.90
2019-02-06T23:46:59.994Z,43.43
2019-02-06T23:49:30.385Z,28.87
2019-02-06T23:52:00.887Z,46.57
2019-02-06T23:54:31.417Z,33.20
2019-02-06T23:57:01.825Z,31.53
2019-02-06T23:59:32.245Z,42.23
